Time;durP1;ratioP1;P1;durP2;ratioP2;P2;SDS_P1;SDS_P2;PMS_P1;PMS_P2;Temp;Humidity;BMP_temperature;BMP_pressure;BME280_temperature;BME280_humidity;BME280_pressure;Samples;Min_cycle;Max_cycle;Signal;HPM_P1;HPM_P2
2021/06/05 00:02:37;;;;;;;8.73;4.62;;;;;;;15.45;63.47;99344.82;1868637;75;22184;-63
2021/06/05 00:05:14;;;;;;;11.53;4.40;;;;;;;15.41;63.45;99340.90;1873834;76;38245;-63
2021/06/05 00:07:50;;;;;;;8.58;4.45;;;;;;;15.43;63.79;99342.21;1889927;76;22108;-63
2021/06/05 00:10:33;;;;;;;5.65;3.42;;;;;;;15.41;64.17;99338.74;1889969;76;22120;-62
2021/06/05 00:13:14;;;;;;;11.50;3.60;;;;;;;15.39;64.08;99340.06;1848493;76;22187;-63
2021/06/05 00:15:50;;;;;;;11.35;4.12;;;;;;;15.37;64.38;99330.09;1889908;76;22149;-64
2021/06/05 00:18:28;;;;;;;7.55;4.12;;;;;;;15.36;64.86;99332.24;1854741;76;27903;-63
2021/06/05 00:21:03;;;;;;;8.38;3.90;;;;;;;15.38;65.22;99324.45;1870875;76;20102;-63
2021/06/05 00:23:38;;;;;;;12.33;3.77;;;;;;;15.34;65.52;99326.20;1889949;76;22123;-65
2021/06/05 00:26:15;;;;;;;10.60;3.92;;;;;;;15.31;65.82;99330.09;1870571;76;22571;-63
2021/06/05 00:28:51;;;;;;;10.65;4.10;;;;;;;15.27;66.10;99325.78;1870588;76;22111;-62
2021/06/05 00:31:28;;;;;;;9.28;4.20;;;;;;;15.25;66.42;99325.36;1870520;76;22169;-66
2021/06/05 00:34:09;;;;;;;9.98;4.00;;;;;;;15.22;66.31;99327.53;1869823;76;22136;-62
2021/06/05 00:36:56;;;;;;;7.87;4.25;;;;;;;15.13;66.29;99328.39;1758260;81;21130;-62
2021/06/05 00:39:31;;;;;;;9.35;4.50;;;;;;;15.11;66.34;99326.26;1866180;76;22148;-66
2021/06/05 00:42:07;;;;;;;7.75;3.98;;;;;;;15.06;66.95;99324.51;1870635;76;22617;-64
2021/06/05 00:44:42;;;;;;;11.88;3.98;;;;;;;15.04;67.61;99328.87;1870649;76;20212;-66
2021/06/05 00:47:22;;;;;;;8.30;4.62;;;;;;;15.04;67.95;99331.47;1889926;76;22127;-63
2021/06/05 00:49:58;;;;;;;8.95;4.20;;;;;;;15.03;68.03;99331.02;1870434;76;20101;-62
2021/06/05 00:52:42;;;;;;;7.25;4.53;;;;;;;15.02;67.95;99331.89;1869733;76;22168;-63
2021/06/05 00:55:21;;;;;;;11.12;4.55;;;;;;;15.02;67.82;99325.40;1870578;76;22136;-63
2021/06/05 00:58:10;;;;;;;9.80;4.67;;;;;;;14.95;67.75;99329.72;1760500;81;21295;-61
2021/06/05 01:01:10;;;;;;;10.08;5.17;;;;;;;15.01;67.47;99332.34;1870663;76;22188;-63
2021/06/05 01:03:46;;;;;;;9.63;5.17;;;;;;;14.98;67.28;99331.91;1870492;76;22157;-63
2021/06/05 01:07:01;;;;;;;10.88;4.95;;;;;;;14.90;67.16;99328.42;1827709;78;21194;-62
2021/06/05 01:09:47;;;;;;;10.15;5.05;;;;;;;14.91;67.17;99324.98;1870632;76;22160;-63
2021/06/05 01:12:46;;;;;;;11.20;4.53;;;;;;;14.88;67.59;99322.80;1870611;76;22564;-61
2021/06/05 01:15:40;;;;;;;10.25;5.17;;;;;;;14.85;67.97;99323.66;1889900;76;22143;-62
2021/06/05 01:18:23;;;;;;;16.25;4.67;;;;;;;14.81;67.93;99321.06;1889891;76;22147;-63
2021/06/05 01:21:15;;;;;;;10.40;5.12;;;;;;;14.76;67.80;99323.69;1870641;76;22113;-63
2021/06/05 01:24:44;;;;;;;11.73;5.40;;;;;;;14.70;67.83;99323.67;1834917;77;22191;-64
2021/06/05 01:27:26;;;;;;;10.55;5.37;;;;;;;14.64;67.91;99318.48;1870619;76;22145;-64
2021/06/05 01:30:29;;;;;;;14.30;5.60;;;;;;;14.59;68.22;99322.81;1880273;76;22207;-64
2021/06/05 01:33:13;;;;;;;13.80;5.05;;;;;;;14.53;68.84;99318.05;1870612;76;22589;-63
2021/06/05 01:35:49;;;;;;;10.68;4.62;;;;;;;14.54;69.50;99317.61;1889887;76;22562;-63
2021/06/05 01:38:29;;;;;;;14.23;4.53;;;;;;;14.58;70.17;99313.27;1889926;76;22586;-63
2021/06/05 01:41:07;;;;;;;10.82;4.62;;;;;;;14.63;69.81;99316.73;1889911;76;22595;-62
2021/06/05 01:43:46;;;;;;;9.08;4.55;;;;;;;14.66;69.37;99317.63;1870687;76;22516;-63
2021/06/05 01:46:32;;;;;;;7.55;4.83;;;;;;;14.67;68.36;99313.28;1878680;76;22189;-63
2021/06/05 01:49:08;;;;;;;8.55;4.85;;;;;;;14.68;67.63;99317.60;1889920;76;22163;-62
2021/06/05 01:51:54;;;;;;;6.97;4.15;;;;;;;14.69;66.89;99315.45;1889900;76;22172;-64
2021/06/05 01:54:38;;;;;;;12.75;5.15;;;;;;;14.69;66.33;99319.35;1870386;76;22168;-63
2021/06/05 01:57:18;;;;;;;12.35;4.33;;;;;;;14.68;66.19;99312.41;1870735;76;22579;-64
2021/06/05 01:59:55;;;;;;;9.50;4.80;;;;;;;14.67;66.05;99315.44;1870565;76;22117;-64
2021/06/05 02:02:30;;;;;;;9.13;5.20;;;;;;;14.65;65.70;99313.71;1889912;76;22184;-65
2021/06/05 02:05:07;;;;;;;12.82;4.90;;;;;;;14.61;65.70;99309.40;1870411;76;20102;-63
2021/06/05 02:07:44;;;;;;;10.58;5.62;;;;;;;14.56;65.65;99311.12;1889931;76;22157;-67
2021/06/05 02:10:21;;;;;;;8.45;4.92;;;;;;;14.53;65.79;99311.55;1870685;76;22539;-63
2021/06/05 02:12:56;;;;;;;11.63;5.50;;;;;;;14.47;65.69;99311.50;1854940;76;27935;-63
2021/06/05 02:15:51;;;;;;;9.48;4.35;;;;;;;14.48;65.75;99311.09;1890058;76;22156;-65
2021/06/05 02:18:31;;;;;;;13.78;4.55;;;;;;;14.44;65.79;99305.45;1870761;76;22113;-64
2021/06/05 02:21:16;;;;;;;15.10;4.80;;;;;;;14.40;65.41;99303.30;1889926;76;22124;-67
2021/06/05 02:24:11;;;;;;;8.78;4.45;;;;;;;14.42;65.57;99313.23;1870681;76;22527;-63
2021/06/05 02:26:47;;;;;;;7.70;4.70;;;;;;;14.41;65.49;99312.80;1870635;76;22148;-65
2021/06/05 02:29:26;;;;;;;9.50;4.83;;;;;;;14.41;65.50;99302.86;1854769;76;27920;-65
2021/06/05 02:32:05;;;;;;;9.15;4.12;;;;;;;14.45;65.42;99305.88;1870579;76;22531;-62
2021/06/05 02:34:42;;;;;;;7.40;4.60;;;;;;;14.43;65.12;99309.78;1870629;76;22121;-63
2021/06/05 02:37:22;;;;;;;8.68;3.72;;;;;;;14.43;65.20;99308.48;1870679;76;22176;-64
2021/06/05 02:40:06;;;;;;;11.63;4.33;;;;;;;14.42;65.15;99303.28;1870919;76;22140;-64
2021/06/05 02:42:41;;;;;;;8.13;4.33;;;;;;;14.43;65.00;99309.78;1870636;76;22121;-63
2021/06/05 02:45:52;;;;;;;8.65;4.30;;;;;;;14.43;65.19;99311.08;1880017;75;22222;-64
2021/06/05 02:49:00;;;;;;;8.10;4.25;;;;;;;14.43;65.09;99308.48;1870564;76;22177;-65
2021/06/05 02:51:40;;;;;;;7.62;4.08;;;;;;;14.43;64.97;99304.59;1870729;76;22528;-64
2021/06/05 02:54:18;;;;;;;9.13;4.15;;;;;;;14.47;64.93;99302.41;1870689;76;22219;-64
2021/06/05 02:56:54;;;;;;;8.70;3.95;;;;;;;14.48;64.84;99304.16;1889974;76;22115;-65
2021/06/05 02:59:30;;;;;;;11.60;4.78;;;;;;;14.50;64.96;99301.14;1834931;77;22185;-64
2021/06/05 03:02:05;;;;;;;10.78;4.53;;;;;;;14.54;64.84;99305.48;1870625;76;22543;-62
2021/06/05 03:04:40;;;;;;;10.60;4.40;;;;;;;14.63;64.86;99306.34;1870586;76;22547;-66
2021/06/05 03:07:16;;;;;;;11.53;3.95;;;;;;;14.72;64.66;99313.71;1889968;76;22139;-65
2021/06/05 03:09:50;;;;;;;9.35;4.08;;;;;;;14.77;64.31;99307.22;1870668;76;22117;-65
2021/06/05 03:12:25;;;;;;;11.45;3.42;;;;;;;14.79;64.28;99308.09;1870657;76;22565;-66
2021/06/05 03:15:01;;;;;;;8.88;4.10;;;;;;;14.84;64.37;99307.66;1889998;76;22120;-66
2021/06/05 03:17:37;;;;;;;8.15;4.10;;;;;;;14.89;64.22;99311.55;1873045;76;22615;-64
2021/06/05 03:20:40;;;;;;;8.63;3.75;;;;;;;14.94;64.11;99310.67;1855630;76;22143;-62
2021/06/05 03:23:38;;;;;;;11.45;5.10;;;;;;;15.00;64.21;99316.29;1935218;73;22130;-66
2021/06/05 03:26:17;;;;;;;7.87;4.37;;;;;;;15.04;64.10;99312.83;1848484;76;22259;-63
2021/06/05 03:28:52;;;;;;;20.70;4.70;;;;;;;15.09;63.94;99312.83;1859473;76;22214;-63
2021/06/05 03:31:27;;;;;;;9.18;4.60;;;;;;;15.09;63.81;99308.94;1841679;76;28357;-64
2021/06/05 03:34:03;;;;;;;13.68;4.47;;;;;;;15.14;63.85;99305.89;1865723;76;22183;-65
2021/06/05 03:36:37;;;;;;;9.45;4.37;;;;;;;15.15;63.74;99306.31;1853347;76;22160;-65
2021/06/05 03:39:24;;;;;;;12.18;4.65;;;;;;;15.12;63.75;99308.92;1817017;78;21554;-62
2021/06/05 03:41:58;;;;;;;9.15;4.65;;;;;;;15.18;63.89;99308.89;1864262;76;22164;-64
2021/06/05 03:44:33;;;;;;;7.25;4.40;;;;;;;15.19;64.00;99308.05;1889901;76;22128;-63
2021/06/05 03:47:08;;;;;;;10.55;4.75;;;;;;;15.21;63.88;99310.18;1889903;76;22132;-65
2021/06/05 03:49:45;;;;;;;10.60;4.45;;;;;;;15.21;64.04;99307.58;1870626;76;22544;-65
2021/06/05 03:55:05;;;;;;;10.35;4.62;;;;;;;15.29;64.16;99301.95;1869979;76;22168;-64
2021/06/05 03:57:44;;;;;;;13.70;3.77;;;;;;;15.32;64.06;99301.94;1870100;76;22159;-66
2021/06/05 04:00:25;;;;;;;9.98;4.45;;;;;;;15.39;63.94;99308.86;1819314;77;28402;-64
2021/06/05 04:03:01;;;;;;;8.98;3.72;;;;;;;15.52;63.88;99304.48;1870676;76;22105;-65
2021/06/05 04:05:41;;;;;;;7.97;4.22;;;;;;;15.59;63.88;99307.91;1840852;76;22195;-64
2021/06/05 04:08:16;;;;;;;10.90;4.83;;;;;;;15.64;63.62;99307.45;1890010;76;22104;-65
2021/06/05 04:10:51;;;;;;;9.18;4.15;;;;;;;15.71;63.73;99307.89;1872398;76;22621;-65
2021/06/05 04:13:27;;;;;;;9.60;4.78;;;;;;;15.78;63.53;99305.70;1854580;76;28019;-63
2021/06/05 04:16:04;;;;;;;12.25;4.53;;;;;;;15.89;63.52;99300.44;1874021;76;27883;-64
2021/06/05 04:18:40;;;;;;;8.15;4.10;;;;;;;16.02;63.17;99306.44;1841973;76;22617;-64
2021/06/05 04:21:19;;;;;;;11.60;4.72;;;;;;;16.09;62.71;99305.53;1854942;76;27925;-62
2021/06/05 04:23:54;;;;;;;9.10;4.28;;;;;;;16.19;62.52;99308.51;1870053;76;22302;-63
2021/06/05 04:26:29;;;;;;;10.95;4.78;;;;;;;16.25;62.15;99304.55;1854171;76;28333;-63
2021/06/05 04:29:04;;;;;;;13.58;5.30;;;;;;;16.36;62.32;99303.61;1870664;76;22604;-62
2021/06/05 04:31:39;;;;;;;7.60;4.33;;;;;;;16.41;61.69;99305.33;1889992;76;22131;-63
2021/06/05 04:34:14;;;;;;;16.15;5.50;;;;;;;16.48;62.02;99299.63;1889945;76;22124;-63
2021/06/05 04:36:51;;;;;;;22.13;7.70;;;;;;;16.54;61.94;99295.69;1870573;76;22563;-62
2021/06/05 04:39:46;;;;;;;9.35;4.03;;;;;;;16.65;61.73;99295.14;1877418;75;22199;-64
2021/06/05 04:42:21;;;;;;;13.32;3.70;;;;;;;16.75;61.30;99293.78;1889926;76;22567;-63
2021/06/05 04:44:56;;;;;;;9.55;3.85;;;;;;;16.83;59.68;99292.84;1870671;76;22109;-62
2021/06/05 04:47:37;;;;;;;11.55;4.45;;;;;;;16.92;59.67;99297.99;1889922;76;22167;-62
2021/06/05 04:50:16;;;;;;;12.45;4.30;;;;;;;17.05;59.76;99293.97;1873808;76;28001;-64
2021/06/05 04:52:51;;;;;;;9.80;3.75;;;;;;;17.19;59.17;99285.98;1890130;76;22104;-63
2021/06/05 04:55:38;;;;;;;8.53;3.42;;;;;;;17.25;58.71;99296.34;1791662;80;21174;-64
2021/06/05 04:58:20;;;;;;;6.30;3.60;;;;;;;17.41;57.87;99291.84;1889883;76;22567;-64
2021/06/05 05:00:56;;;;;;;10.85;3.42;;;;;;;17.50;57.79;99287.38;1870474;76;22137;-63
2021/06/05 05:03:37;;;;;;;9.45;3.40;;;;;;;17.64;57.82;99287.65;1890133;76;22192;-64
2021/06/05 05:06:34;;;;;;;10.90;3.55;;;;;;;17.76;57.02;99285.75;1862867;75;22315;-64
2021/06/05 05:09:13;;;;;;;8.20;4.25;;;;;;;17.85;56.76;99278.25;1870603;76;22160;-64
2021/06/05 05:11:49;;;;;;;10.82;4.05;;;;;;;17.99;56.39;99286.77;1870474;76;22197;-64
2021/06/05 05:14:35;;;;;;;11.45;3.25;;;;;;;18.05;56.04;99285.81;1827862;77;21546;-63
2021/06/05 05:17:16;;;;;;;6.50;3.22;;;;;;;18.26;54.70;99284.63;1889829;76;22213;-62
2021/06/05 05:19:52;;;;;;;7.83;4.05;;;;;;;18.38;53.16;99287.06;1870662;76;22140;-64
2021/06/05 05:22:27;;;;;;;9.43;3.58;;;;;;;18.50;52.96;99279.94;1889909;76;22111;-64
2021/06/05 05:25:16;;;;;;;8.93;3.45;;;;;;;18.58;52.46;99285.89;1791642;80;21162;-64
2021/06/05 05:27:51;;;;;;;7.47;2.98;;;;;;;18.76;52.58;99275.15;1870720;76;22532;-63
2021/06/05 05:30:31;;;;;;;9.40;3.50;;;;;;;18.86;52.42;99278.02;1889880;76;22113;-64
2021/06/05 05:33:07;;;;;;;22.58;3.52;;;;;;;18.95;51.88;99269.59;1870563;76;22144;-64
2021/06/05 05:35:56;;;;;;;6.97;2.92;;;;;;;18.93;51.84;99274.86;1827749;78;21541;-66
2021/06/05 05:38:30;;;;;;;4.58;2.55;;;;;;;19.07;51.32;99269.36;1870645;76;22247;-65
2021/06/05 05:41:14;;;;;;;6.22;2.95;;;;;;;19.10;51.05;99270.61;1889906;76;22566;-62
2021/06/05 05:43:47;;;;;;;8.98;2.62;;;;;;;19.16;50.45;99277.47;1870821;76;20201;-65
2021/06/05 05:46:23;;;;;;;7.92;3.10;;;;;;;19.21;50.63;99274.32;1870736;76;22144;-64
2021/06/05 05:48:58;;;;;;;6.62;2.65;;;;;;;19.41;50.57;99273.94;1870671;76;20215;-64
2021/06/05 05:51:33;;;;;;;5.45;2.80;;;;;;;19.95;48.50;99270.65;1839252;76;22203;-63
2021/06/05 05:54:08;;;;;;;5.95;2.83;;;;;;;21.50;45.79;99267.66;1870627;76;22669;-65
2021/06/05 05:56:43;;;;;;;5.30;2.40;;;;;;;23.11;41.55;99275.28;1870654;76;22170;-63
2021/06/05 05:59:20;;;;;;;5.90;2.20;;;;;;;24.43;38.75;99275.57;1870548;76;22142;-65
2021/06/05 06:02:01;;;;;;;4.28;2.20;;;;;;;25.93;36.86;99275.28;1869758;76;22170;-63
2021/06/05 06:04:37;;;;;;;6.28;2.12;;;;;;;27.32;34.15;99279.42;1870377;76;22164;-63
2021/06/05 06:07:23;;;;;;;7.30;1.92;;;;;;;28.19;32.18;99286.23;1827587;78;21123;-63
2021/06/05 06:09:59;;;;;;;4.87;1.92;;;;;;;28.92;30.24;99287.30;1889890;76;22598;-63
2021/06/05 06:12:35;;;;;;;6.80;2.45;;;;;;;29.13;30.18;99279.02;1854753;76;27885;-63
2021/06/05 06:15:15;;;;;;;4.62;1.82;;;;;;;29.46;30.30;99278.77;1889913;76;22645;-62
2021/06/05 06:18:04;;;;;;;5.62;1.87;;;;;;;29.65;29.14;99274.53;1861121;77;21136;-62
2021/06/05 06:20:44;;;;;;;6.00;1.77;;;;;;;30.11;28.20;99278.25;1889949;76;22049;-64
2021/06/05 06:23:24;;;;;;;8.00;1.75;;;;;;;30.53;28.00;99279.06;1870653;76;22248;-63
2021/06/05 06:26:18;;;;;;;6.30;1.90;;;;;;;30.91;27.47;99283.67;1760728;80;21722;-67
2021/06/05 06:28:55;;;;;;;4.25;1.57;;;;;;;31.09;27.13;99278.44;1870657;76;22248;-64
2021/06/05 06:31:30;;;;;;;4.62;1.70;;;;;;;31.68;26.61;99274.38;1870638;76;22233;-64
2021/06/05 06:34:16;;;;;;;4.85;1.57;;;;;;;32.40;26.13;99277.16;1827722;78;21149;-64
2021/06/05 06:36:54;;;;;;;8.30;1.82;;;;;;;33.22;25.18;99275.88;1870529;76;22048;-63
2021/06/05 06:39:28;;;;;;;6.33;1.92;;;;;;;33.87;24.36;99277.02;1855031;76;28074;-64
2021/06/05 06:42:05;;;;;;;7.17;2.02;;;;;;;34.38;23.71;99276.44;1870585;76;22078;-66
2021/06/05 06:44:40;;;;;;;4.85;1.90;;;;;;;34.59;23.72;99283.20;1870606;76;22054;-68
2021/06/05 06:47:26;;;;;;;7.95;1.72;;;;;;;35.00;23.07;99289.57;1827439;78;21272;-65
2021/06/05 06:50:02;;;;;;;4.20;1.37;;;;;;;34.99;22.90;99283.86;1870612;76;22055;-65
2021/06/05 06:52:38;;;;;;;6.22;1.77;;;;;;;35.05;23.08;99292.71;1870653;76;22054;-63
2021/06/05 06:55:13;;;;;;;6.95;1.80;;;;;;;35.44;21.63;99290.27;1889944;76;22090;-66
2021/06/05 06:57:49;;;;;;;5.70;1.50;;;;;;;35.06;21.66;99290.88;1873846;76;28023;-65
2021/06/05 07:00:32;;;;;;;5.28;1.60;;;;;;;34.99;21.98;99290.07;1873992;76;28311;-64
2021/06/05 07:03:07;;;;;;;4.55;1.80;;;;;;;34.77;21.62;99288.34;1889985;76;22066;-64
2021/06/05 07:05:42;;;;;;;3.67;1.52;;;;;;;34.29;22.04;99288.75;1854917;76;32765;-64
2021/06/05 07:08:30;;;;;;;11.55;1.67;;;;;;;32.91;23.31;99286.73;1889902;76;22709;-67
2021/06/05 07:11:16;;;;;;;5.03;1.65;;;;;;;32.78;23.92;99277.46;1889872;76;22078;-64
2021/06/05 07:13:51;;;;;;;5.62;1.47;;;;;;;33.84;22.77;99278.13;1870655;76;22082;-63
2021/06/05 07:16:38;;;;;;;6.37;1.87;;;;;;;33.33;23.25;99273.23;1827461;78;21157;-62
2021/06/05 07:19:14;;;;;;;5.22;1.92;;;;;;;32.35;24.08;99273.98;1870444;76;22047;-61
2021/06/05 07:21:49;;;;;;;5.12;1.82;;;;;;;30.93;25.96;99268.43;1889921;76;22077;-69
2021/06/05 07:24:24;;;;;;;5.80;1.75;;;;;;;30.58;26.59;99264.12;1835096;77;22109;-70
2021/06/05 07:26:59;;;;;;;3.45;1.42;;;;;;;31.50;25.88;99268.54;1870456;76;22058;-67
2021/06/05 07:29:33;;;;;;;3.72;1.35;;;;;;;32.65;25.53;99251.66;1870628;76;22090;-64
2021/06/05 07:32:09;;;;;;;4.05;1.50;;;;;;;33.13;24.46;99265.89;1889918;76;22082;-65
2021/06/05 07:34:43;;;;;;;6.87;1.67;;;;;;;32.79;24.73;99263.12;1870606;76;22481;-64
2021/06/05 07:37:29;;;;;;;6.62;1.60;;;;;;;32.45;24.23;99261.63;1827745;77;21695;-63
2021/06/05 07:40:10;;;;;;;5.05;1.67;;;;;;;32.62;23.61;99257.25;1870608;76;22075;-64
2021/06/05 07:42:44;;;;;;;4.78;1.67;;;;;;;33.24;23.43;99251.20;1870581;76;22209;-63
2021/06/05 07:45:31;;;;;;;3.92;1.60;;;;;;;33.71;22.46;99251.95;1759738;81;21299;-66
2021/06/05 07:48:06;;;;;;;6.33;1.90;;;;;;;32.80;23.20;99240.29;1889191;76;22653;-64
2021/06/05 07:50:43;;;;;;;6.25;1.57;;;;;;;31.70;24.62;99235.95;1853097;76;27948;-65
2021/06/05 07:53:17;;;;;;;5.67;1.52;;;;;;;31.71;24.50;99239.47;1870115;76;22090;-63
2021/06/05 07:55:54;;;;;;;4.42;1.80;;;;;;;31.89;23.71;99238.13;1853945;76;28373;-63
2021/06/05 07:58:28;;;;;;;3.75;1.80;;;;;;;31.72;24.46;99228.66;1889583;76;22251;-63
2021/06/05 08:01:09;;;;;;;5.78;1.45;;;;;;;30.62;25.04;99228.33;1869734;76;22074;-62
2021/06/05 08:03:45;;;;;;;4.60;1.90;;;;;;;29.65;26.23;99226.66;1873947;76;28287;-63
2021/06/05 08:06:21;;;;;;;5.73;1.80;;;;;;;29.22;26.82;99223.98;1854717;76;27880;-63
2021/06/05 08:08:56;;;;;;;4.80;1.77;;;;;;;29.71;26.21;99221.41;1873975;76;38641;-65
2021/06/05 08:11:43;;;;;;;4.03;1.52;;;;;;;30.55;25.98;99224.37;1861409;77;21140;-65
2021/06/05 08:14:17;;;;;;;3.77;1.52;;;;;;;31.37;24.81;99217.81;1870648;76;22248;-63
2021/06/05 08:16:58;;;;;;;4.33;1.50;;;;;;;31.62;24.65;99209.43;1869769;76;22094;-64
2021/06/05 08:19:46;;;;;;;5.50;1.62;;;;;;;30.69;24.24;99209.66;1827501;78;21091;-62
2021/06/05 08:22:23;;;;;;;6.15;1.32;;;;;;;29.23;25.77;99212.88;1889908;76;22219;-61
2021/06/05 08:24:55;;;;;;;5.05;1.70;;;;;;;29.25;25.60;99208.32;1870806;76;22083;-64
2021/06/05 08:27:32;;;;;;;4.50;1.80;;;;;;;29.70;25.20;99209.08;1854728;76;28329;-64
2021/06/05 08:30:12;;;;;;;3.55;1.57;;;;;;;30.46;24.55;99203.22;1870589;76;20204;-63
2021/06/05 08:32:54;;;;;;;5.22;1.72;;;;;;;31.03;24.40;99198.02;1889849;76;22556;-66
2021/06/05 08:35:42;;;;;;;5.22;1.55;;;;;;;30.84;24.36;99181.14;1861113;77;21694;-65
2021/06/05 08:38:21;;;;;;;8.30;1.47;;;;;;;29.98;25.02;99201.00;1870513;76;22454;-64
2021/06/05 08:41:26;;;;;;;2.95;1.42;;;;;;;28.71;26.74;99195.14;1869692;76;22513;-64
2021/06/05 08:44:16;;;;;;;6.45;1.50;;;;;;;27.60;27.72;99197.08;1870567;76;22504;-64
2021/06/05 08:47:21;;;;;;;4.35;1.90;;;;;;;26.70;28.95;99192.16;1870616;76;22216;-64
2021/06/05 08:50:15;;;;;;;4.90;1.57;;;;;;;26.48;29.27;99190.55;1854661;76;38208;-65
2021/06/05 08:53:03;;;;;;;3.10;1.60;;;;;;;27.12;29.24;99180.22;1870655;76;22313;-64
2021/06/05 08:55:57;;;;;;;8.38;1.60;;;;;;;27.79;28.64;99189.82;1827538;78;21668;-65
2021/06/05 08:58:46;;;;;;;4.35;1.60;;;;;;;29.03;26.55;99183.05;1870552;76;22592;-64
2021/06/05 09:01:45;;;;;;;6.67;2.20;;;;;;;29.96;26.19;99174.12;1870471;76;22644;-63
2021/06/05 09:04:31;;;;;;;3.67;1.62;;;;;;;29.88;25.84;99184.42;1827518;78;21206;-62
2021/06/05 09:07:12;;;;;;;4.78;1.45;;;;;;;29.36;25.39;99177.92;1870517;76;20216;-63
2021/06/05 09:09:50;;;;;;;5.58;1.85;;;;;;;28.84;26.23;99185.11;1889892;76;22081;-64
2021/06/05 09:12:45;;;;;;;3.55;1.27;;;;;;;28.01;27.18;99176.69;1867224;75;22205;-64
2021/06/05 09:15:35;;;;;;;5.92;1.47;;;;;;;27.04;28.32;99178.83;1870677;76;22050;-63
2021/06/05 09:18:13;;;;;;;4.17;1.65;;;;;;;26.15;29.17;99172.78;1870636;76;22260;-64
2021/06/05 09:21:05;;;;;;;5.75;1.82;;;;;;;25.17;30.68;99169.52;1889911;76;22171;-63
2021/06/05 09:23:40;;;;;;;4.35;1.52;;;;;;;24.40;32.10;99163.58;1870686;76;22112;-65
2021/06/05 09:26:26;;;;;;;5.75;1.80;;;;;;;23.91;33.18;99169.55;1870641;76;22117;-62
2021/06/05 09:29:17;;;;;;;5.75;2.00;;;;;;;23.54;34.21;99163.55;1854748;76;27916;-64
2021/06/05 09:32:12;;;;;;;3.00;1.62;;;;;;;23.38;35.00;99164.56;1870581;76;22543;-64
2021/06/05 09:35:10;;;;;;;3.25;1.57;;;;;;;23.06;35.44;99166.65;1827636;78;21110;-62
2021/06/05 09:38:13;;;;;;;5.25;1.85;;;;;;;22.98;36.13;99156.87;1870503;76;22132;-62
2021/06/05 09:41:08;;;;;;;4.92;1.82;;;;;;;22.84;36.12;99156.46;1870598;76;22543;-63
2021/06/05 09:43:45;;;;;;;3.72;1.47;;;;;;;23.03;36.51;99150.97;1890264;76;22163;-62
2021/06/05 09:46:33;;;;;;;7.37;2.00;;;;;;;23.28;36.04;99148.72;1870466;76;22157;-64
2021/06/05 09:49:27;;;;;;;5.03;1.70;;;;;;;23.53;35.32;99152.12;1889885;76;22203;-65
2021/06/05 09:52:21;;;;;;;7.58;2.00;;;;;;;23.79;33.56;99144.56;1889945;76;22531;-63
2021/06/05 09:55:00;;;;;;;4.33;1.67;;;;;;;24.08;33.55;99133.28;1834897;77;22199;-64
2021/06/05 09:57:40;;;;;;;3.77;1.60;;;;;;;24.27;32.55;99139.94;1870573;76;22112;-63
2021/06/05 10:00:33;;;;;;;3.90;1.90;;;;;;;24.20;32.69;99142.47;1870742;76;22137;-63
2021/06/05 10:03:32;;;;;;;6.05;1.72;;;;;;;24.17;32.70;99135.98;1889892;76;22678;-64
2021/06/05 10:06:42;;;;;;;6.67;1.70;;;;;;;23.97;33.62;99137.69;1791583;80;21559;-64
2021/06/05 10:09:32;;;;;;;4.45;1.57;;;;;;;23.62;34.03;99133.33;1889922;76;22183;-64
2021/06/05 10:12:18;;;;;;;5.20;1.80;;;;;;;23.18;35.10;99124.08;1889900;76;22163;-64
2021/06/05 10:15:11;;;;;;;4.92;1.98;;;;;;;22.76;36.05;99133.91;1889866;76;22163;-64
2021/06/05 10:18:00;;;;;;;5.87;2.15;;;;;;;22.51;36.68;99136.55;1870583;76;22157;-62
2021/06/05 10:21:04;;;;;;;6.78;2.27;;;;;;;22.33;37.08;99130.16;1827792;78;21279;-63
2021/06/05 10:23:47;;;;;;;7.28;2.27;;;;;;;22.16;37.60;99125.03;1888184;76;22273;-63
2021/06/05 10:26:41;;;;;;;4.83;2.37;;;;;;;22.11;37.93;99134.42;1870448;76;22164;-64
2021/06/05 10:29:33;;;;;;;7.65;2.65;;;;;;;22.25;38.16;99124.77;1870726;76;22187;-63
2021/06/05 10:32:26;;;;;;;7.25;2.05;;;;;;;22.43;37.94;99119.33;1870537;76;22157;-63
2021/06/05 10:35:39;;;;;;;3.87;1.80;;;;;;;22.48;37.69;99124.83;1870468;76;22552;-63
2021/06/05 10:38:44;;;;;;;7.70;2.10;;;;;;;22.68;37.38;99113.60;1889885;76;22155;-63
2021/06/05 10:41:24;;;;;;;8.70;2.05;;;;;;;22.98;36.74;99113.91;1890016;76;22104;-63
2021/06/05 10:44:04;;;;;;;4.55;1.80;;;;;;;23.16;36.44;99120.63;1870418;76;22114;-64
2021/06/05 10:46:54;;;;;;;5.78;2.08;;;;;;;23.26;35.99;99107.98;1870439;76;22579;-65
2021/06/05 10:49:44;;;;;;;7.37;2.27;;;;;;;23.25;35.87;99118.56;1870495;76;22527;-63
2021/06/05 10:53:08;;;;;;;4.97;2.08;;;;;;;23.29;35.85;99128.07;1760540;81;21149;-64
2021/06/05 10:55:48;;;;;;;4.33;2.02;;;;;;;23.51;36.00;99114.91;1870589;76;22552;-62
2021/06/05 10:58:51;;;;;;;7.55;2.40;;;;;;;23.64;35.45;99103.45;1870595;76;22555;-63
2021/06/05 11:01:45;;;;;;;5.25;2.45;;;;;;;23.61;35.98;99103.11;1889891;76;22555;-64
2021/06/05 11:04:39;;;;;;;4.67;1.95;;;;;;;23.55;35.41;99106.83;1870638;76;22137;-65
2021/06/05 11:10:13;;;;;;;7.20;2.10;;;;;;;23.60;34.49;99099.59;1889958;76;22562;-64
2021/06/05 11:12:54;;;;;;;3.30;1.75;;;;;;;23.73;34.65;99105.73;1889928;76;22184;-64
2021/06/05 11:15:50;;;;;;;6.58;2.90;;;;;;;23.73;35.00;99099.98;1870518;76;22156;-63
2021/06/05 11:18:32;;;;;;;5.55;2.20;;;;;;;23.93;35.07;99104.45;1850812;77;22232;-66
2021/06/05 11:21:27;;;;;;;6.60;2.25;;;;;;;24.12;34.94;99097.08;1889893;76;22179;-66
2021/06/05 11:24:14;;;;;;;7.87;1.98;;;;;;;24.18;34.36;99095.05;1870491;76;20213;-64
2021/06/05 11:26:54;;;;;;;7.25;2.35;;;;;;;24.23;34.33;99088.27;1870649;76;20209;-65
2021/06/05 11:29:39;;;;;;;10.28;2.12;;;;;;;24.23;33.47;99090.91;1870448;76;22109;-64
2021/06/05 11:32:50;;;;;;;4.15;1.90;;;;;;;24.14;33.28;99088.65;1760533;81;21106;-63
2021/06/05 11:35:57;;;;;;;7.25;2.00;;;;;;;24.39;32.52;99091.94;1889967;76;22156;-63
2021/06/05 11:38:49;;;;;;;5.85;2.08;;;;;;;24.63;32.74;99081.29;1870610;76;22117;-64
2021/06/05 11:41:53;;;;;;;6.50;2.08;;;;;;;24.86;32.06;99081.10;1870640;76;22113;-64
2021/06/05 11:44:59;;;;;;;4.47;2.17;;;;;;;24.85;31.90;99091.72;1873319;75;22193;-64
2021/06/05 11:47:42;;;;;;;17.05;1.87;;;;;;;25.00;32.16;99083.09;1889905;76;22565;-64
2021/06/05 11:50:26;;;;;;;4.37;2.30;;;;;;;25.03;32.32;99088.70;1870460;76;22172;-63
2021/06/05 11:53:35;;;;;;;5.62;2.40;;;;;;;24.98;32.30;99078.81;1870403;76;22174;-65
2021/06/05 11:56:11;;;;;;;5.45;1.95;;;;;;;25.02;32.87;99071.15;1889906;76;22155;-64
2021/06/05 11:58:46;;;;;;;3.87;2.17;;;;;;;25.03;32.51;99071.53;1870475;76;22203;-63
2021/06/05 12:01:29;;;;;;;5.35;2.30;;;;;;;25.28;32.80;99064.67;1854585;76;28023;-62
2021/06/05 12:04:12;;;;;;;5.75;2.30;;;;;;;25.70;31.56;99073.63;1889948;76;22148;-64
2021/06/05 12:06:49;;;;;;;5.22;2.47;;;;;;;25.86;30.98;99064.97;1889942;76;22104;-65
2021/06/05 12:09:42;;;;;;;4.58;1.80;;;;;;;25.67;30.42;99077.75;1861202;77;21126;-62
2021/06/05 12:12:21;;;;;;;5.50;2.25;;;;;;;25.30;30.51;99066.78;1870464;76;22125;-63
2021/06/05 12:15:07;;;;;;;4.55;2.05;;;;;;;24.97;30.80;99063.91;1889903;76;22140;-63
2021/06/05 12:17:44;;;;;;;5.95;1.95;;;;;;;24.50;30.99;99061.63;1870635;76;20204;-64
2021/06/05 12:20:38;;;;;;;7.37;1.72;;;;;;;24.15;31.55;99060.06;1870618;76;22113;-64
2021/06/05 12:23:39;;;;;;;7.83;1.82;;;;;;;23.94;32.64;99063.13;1870632;76;22120;-63
2021/06/05 12:26:40;;;;;;;7.67;2.60;;;;;;;23.76;33.13;99058.16;1875031;75;22235;-65
2021/06/05 12:29:24;;;;;;;5.25;2.35;;;;;;;23.66;32.91;99058.11;1889864;76;22196;-64
2021/06/05 12:32:27;;;;;;;3.47;1.80;;;;;;;23.51;33.32;99063.10;1889926;76;22119;-62
2021/06/05 12:35:27;;;;;;;5.95;2.75;;;;;;;23.48;34.49;99060.56;1889915;76;22561;-63
2021/06/05 12:38:04;;;;;;;8.00;1.87;;;;;;;23.58;33.91;99059.30;1870654;76;22145;-64
2021/06/05 12:40:59;;;;;;;12.00;2.05;;;;;;;23.62;34.03;99060.02;1889960;76;22164;-63
2021/06/05 12:43:50;;;;;;;7.33;2.47;;;;;;;23.61;34.01;99052.59;1870618;76;22117;-66
2021/06/05 12:46:33;;;;;;;5.47;2.20;;;;;;;23.58;33.97;99055.78;1889949;76;20219;-63
2021/06/05 12:49:15;;;;;;;7.08;1.92;;;;;;;23.54;34.20;99046.31;1870794;76;22104;-64
2021/06/05 12:52:03;;;;;;;6.05;2.00;;;;;;;23.41;34.09;99045.95;1828011;78;21252;-62
2021/06/05 12:54:43;;;;;;;5.40;2.15;;;;;;;23.34;34.27;99041.37;1870392;76;22141;-63